sensor_id;sensor_type;location;lat;lon;timestamp;temperature;humidity
67862;DHT22;54665;51.462;6.698;2023-02-28T00:00:11;0.33;76.59
67862;DHT22;54665;51.462;6.698;2023-02-28T00:02:38;0.29;76.77
67862;DHT22;54665;51.462;6.698;2023-02-28T00:05:05;0.22;77.01
67862;DHT22;54665;51.462;6.698;2023-02-28T00:07:31;0.12;77.09
67862;DHT22;54665;51.462;6.698;2023-02-28T00:09:57;0.12;77.25
67862;DHT22;54665;51.462;6.698;2023-02-28T00:12:23;0.08;77.27
67862;DHT22;54665;51.462;6.698;2023-02-28T00:14:49;-0.03;77.33
67862;DHT22;54665;51.462;6.698;2023-02-28T00:17:14;-0.10;77.83
67862;DHT22;54665;51.462;6.698;2023-02-28T00:19:41;-0.10;78.20
67862;DHT22;54665;51.462;6.698;2023-02-28T00:22:06;-0.03;78.06
67862;DHT22;54665;51.462;6.698;2023-02-28T00:24:32;-0.07;78.04
67862;DHT22;54665;51.462;6.698;2023-02-28T00:26:57;-0.09;77.93
67862;DHT22;54665;51.462;6.698;2023-02-28T00:29:22;-0.10;77.91
67862;DHT22;54665;51.462;6.698;2023-02-28T00:31:48;-0.15;78.07
67862;DHT22;54665;51.462;6.698;2023-02-28T00:34:13;-0.23;78.54
67862;DHT22;54665;51.462;6.698;2023-02-28T00:36:39;-0.22;78.50
67862;DHT22;54665;51.462;6.698;2023-02-28T00:39:06;-0.17;78.28
67862;DHT22;54665;51.462;6.698;2023-02-28T00:41:31;-0.06;77.41
67862;DHT22;54665;51.462;6.698;2023-02-28T00:43:56;-0.05;77.21
67862;DHT22;54665;51.462;6.698;2023-02-28T00:46:22;0.08;76.82
67862;DHT22;54665;51.462;6.698;2023-02-28T00:48:49;0.21;76.58
67862;DHT22;54665;51.462;6.698;2023-02-28T00:51:14;0.32;75.14
67862;DHT22;54665;51.462;6.698;2023-02-28T00:53:40;0.38;74.78
67862;DHT22;54665;51.462;6.698;2023-02-28T00:56:05;0.35;74.62
67862;DHT22;54665;51.462;6.698;2023-02-28T00:58:31;0.30;74.23
67862;DHT22;54665;51.462;6.698;2023-02-28T01:00:56;0.26;74.52
67862;DHT22;54665;51.462;6.698;2023-02-28T01:03:22;0.16;74.60
67862;DHT22;54665;51.462;6.698;2023-02-28T01:05:48;0.15;74.39
67862;DHT22;54665;51.462;6.698;2023-02-28T01:08:15;0.02;75.12
67862;DHT22;54665;51.462;6.698;2023-02-28T01:10:41;0.02;75.03
67862;DHT22;54665;51.462;6.698;2023-02-28T01:13:07;0.12;74.54
67862;DHT22;54665;51.462;6.698;2023-02-28T01:15:36;0.06;74.32
67862;DHT22;54665;51.462;6.698;2023-02-28T01:18:01;0.05;74.23
67862;DHT22;54665;51.462;6.698;2023-02-28T01:20:27;0.06;74.40
67862;DHT22;54665;51.462;6.698;2023-02-28T01:22:52;0.05;74.58
67862;DHT22;54665;51.462;6.698;2023-02-28T01:25:17;-0.01;74.49
67862;DHT22;54665;51.462;6.698;2023-02-28T01:27:43;0.05;74.41
67862;DHT22;54665;51.462;6.698;2023-02-28T01:30:09;-0.01;74.09
67862;DHT22;54665;51.462;6.698;2023-02-28T01:32:36;-0.03;74.54
67862;DHT22;54665;51.462;6.698;2023-02-28T01:35:02;-0.06;74.95
67862;DHT22;54665;51.462;6.698;2023-02-28T01:37:28;-0.05;74.86
67862;DHT22;54665;51.462;6.698;2023-02-28T01:39:53;-0.10;75.10
67862;DHT22;54665;51.462;6.698;2023-02-28T01:42:19;-0.25;75.48
67862;DHT22;54665;51.462;6.698;2023-02-28T01:47:20;-0.57;76.64
67862;DHT22;54665;51.462;6.698;2023-02-28T01:49:46;-0.73;76.72
67862;DHT22;54665;51.462;6.698;2023-02-28T01:52:13;-0.81;77.31
67862;DHT22;54665;51.462;6.698;2023-02-28T01:54:50;-0.87;77.85
67862;DHT22;54665;51.462;6.698;2023-02-28T01:57:19;-0.94;77.80
67862;DHT22;54665;51.462;6.698;2023-02-28T02:02:19;-0.97;78.13
67862;DHT22;54665;51.462;6.698;2023-02-28T02:05:05;-0.94;78.82
67862;DHT22;54665;51.462;6.698;2023-02-28T02:07:33;-0.95;78.35
67862;DHT22;54665;51.462;6.698;2023-02-28T02:18:01;-0.84;78.55
67862;DHT22;54665;51.462;6.698;2023-02-28T02:26:19;-1.02;78.99
67862;DHT22;54665;51.462;6.698;2023-02-28T02:32:37;-1.07;79.62
67862;DHT22;54665;51.462;6.698;2023-02-28T02:35:30;-1.08;79.37
67862;DHT22;54665;51.462;6.698;2023-02-28T02:38:33;-1.22;79.77
67862;DHT22;54665;51.462;6.698;2023-02-28T02:44:02;-1.29;80.22
67862;DHT22;54665;51.462;6.698;2023-02-28T02:46:33;-1.28;79.95
67862;DHT22;54665;51.462;6.698;2023-02-28T02:49:01;-1.32;80.28
67862;DHT22;54665;51.462;6.698;2023-02-28T02:51:30;-1.32;80.22
67862;DHT22;54665;51.462;6.698;2023-02-28T02:54:03;-1.39;80.13
67862;DHT22;54665;51.462;6.698;2023-02-28T02:56:33;-1.48;80.34
67862;DHT22;54665;51.462;6.698;2023-02-28T02:59:03;-1.45;80.56
67862;DHT22;54665;51.462;6.698;2023-02-28T03:01:31;-1.49;80.59
67862;DHT22;54665;51.462;6.698;2023-02-28T03:03:59;-1.53;80.41
67862;DHT22;54665;51.462;6.698;2023-02-28T03:06:26;-1.56;80.63
67862;DHT22;54665;51.462;6.698;2023-02-28T03:08:52;-1.58;80.83
67862;DHT22;54665;51.462;6.698;2023-02-28T03:11:18;-1.66;80.97
67862;DHT22;54665;51.462;6.698;2023-02-28T03:20:16;-1.45;80.98
67862;DHT22;54665;51.462;6.698;2023-02-28T03:23:13;-1.27;80.45
67862;DHT22;54665;51.462;6.698;2023-02-28T03:26:01;-1.28;79.86
67862;DHT22;54665;51.462;6.698;2023-02-28T03:28:45;-1.24;79.51
67862;DHT22;54665;51.462;6.698;2023-02-28T03:31:27;-0.98;79.25
67862;DHT22;54665;51.462;6.698;2023-02-28T03:34:14;-0.91;78.34
67862;DHT22;54665;51.462;6.698;2023-02-28T03:36:47;-0.99;78.09
67862;DHT22;54665;51.462;6.698;2023-02-28T03:39:23;-0.99;78.29
67862;DHT22;54665;51.462;6.698;2023-02-28T03:41:51;-1.05;78.35
67862;DHT22;54665;51.462;6.698;2023-02-28T03:44:23;-1.01;78.86
67862;DHT22;54665;51.462;6.698;2023-02-28T03:46:58;-0.95;78.09
67862;DHT22;54665;51.462;6.698;2023-02-28T03:49:28;-1.05;78.12
67862;DHT22;54665;51.462;6.698;2023-02-28T03:51:56;-1.16;78.93
67862;DHT22;54665;51.462;6.698;2023-02-28T03:54:32;-1.16;79.00
67862;DHT22;54665;51.462;6.698;2023-02-28T03:59:40;-1.04;78.13
67862;DHT22;54665;51.462;6.698;2023-02-28T04:02:07;-1.08;77.62
67862;DHT22;54665;51.462;6.698;2023-02-28T04:04:33;-1.12;77.98
67862;DHT22;54665;51.462;6.698;2023-02-28T04:07:07;-1.12;77.06
67862;DHT22;54665;51.462;6.698;2023-02-28T04:09:34;-0.97;76.68
67862;DHT22;54665;51.462;6.698;2023-02-28T04:11:59;-0.95;76.27
67862;DHT22;54665;51.462;6.698;2023-02-28T04:14:25;-0.89;75.95
67862;DHT22;54665;51.462;6.698;2023-02-28T04:16:50;-0.74;75.62
67862;DHT22;54665;51.462;6.698;2023-02-28T04:19:16;-0.73;75.20
67862;DHT22;54665;51.462;6.698;2023-02-28T04:21:44;-0.74;75.17
67862;DHT22;54665;51.462;6.698;2023-02-28T04:24:12;-0.74;74.67
67862;DHT22;54665;51.462;6.698;2023-02-28T04:26:46;-0.70;74.47
67862;DHT22;54665;51.462;6.698;2023-02-28T04:29:14;-0.81;74.52
67862;DHT22;54665;51.462;6.698;2023-02-28T04:31:42;-0.88;74.45
67862;DHT22;54665;51.462;6.698;2023-02-28T04:34:08;-0.81;74.50
67862;DHT22;54665;51.462;6.698;2023-02-28T04:36:33;-0.80;74.12
67862;DHT22;54665;51.462;6.698;2023-02-28T04:38:58;-0.81;74.23
67862;DHT22;54665;51.462;6.698;2023-02-28T04:41:24;-0.84;73.71
67862;DHT22;54665;51.462;6.698;2023-02-28T04:43:52;-0.95;73.72
67862;DHT22;54665;51.462;6.698;2023-02-28T04:46:18;-1.01;74.14
67862;DHT22;54665;51.462;6.698;2023-02-28T04:48:44;-0.94;73.78
67862;DHT22;54665;51.462;6.698;2023-02-28T04:51:11;-1.01;73.63
67862;DHT22;54665;51.462;6.698;2023-02-28T04:53:38;-1.02;73.66
67862;DHT22;54665;51.462;6.698;2023-02-28T04:56:05;-1.15;74.01
67862;DHT22;54665;51.462;6.698;2023-02-28T04:58:31;-1.28;74.34
67862;DHT22;54665;51.462;6.698;2023-02-28T05:01:21;-1.31;74.50
67862;DHT22;54665;51.462;6.698;2023-02-28T05:03:47;-1.28;74.63
67862;DHT22;54665;51.462;6.698;2023-02-28T05:06:13;-1.27;74.33
67862;DHT22;54665;51.462;6.698;2023-02-28T05:08:40;-1.35;74.16
67862;DHT22;54665;51.462;6.698;2023-02-28T05:11:14;-1.45;74.77
67862;DHT22;54665;51.462;6.698;2023-02-28T05:13:40;-1.46;75.20
67862;DHT22;54665;51.462;6.698;2023-02-28T05:16:05;-1.46;75.13
67862;DHT22;54665;51.462;6.698;2023-02-28T05:18:31;-1.42;75.22
67862;DHT22;54665;51.462;6.698;2023-02-28T05:20:56;-1.40;75.27
67862;DHT22;54665;51.462;6.698;2023-02-28T05:23:22;-1.45;75.28
67862;DHT22;54665;51.462;6.698;2023-02-28T05:25:48;-1.49;75.53
67862;DHT22;54665;51.462;6.698;2023-02-28T05:28:13;-1.52;75.66
67862;DHT22;54665;51.462;6.698;2023-02-28T05:30:39;-1.52;75.52
67862;DHT22;54665;51.462;6.698;2023-02-28T05:33:05;-1.64;75.20
67862;DHT22;54665;51.462;6.698;2023-02-28T05:35:30;-1.73;75.56
67862;DHT22;54665;51.462;6.698;2023-02-28T05:37:55;-1.86;76.12
67862;DHT22;54665;51.462;6.698;2023-02-28T05:40:21;-1.83;76.43
67862;DHT22;54665;51.462;6.698;2023-02-28T05:42:46;-1.86;76.84
67862;DHT22;54665;51.462;6.698;2023-02-28T05:45:12;-1.87;76.87
67862;DHT22;54665;51.462;6.698;2023-02-28T05:47:38;-1.91;76.34
67862;DHT22;54665;51.462;6.698;2023-02-28T05:50:05;-1.89;76.33
67862;DHT22;54665;51.462;6.698;2023-02-28T05:52:31;-1.84;76.09
67862;DHT22;54665;51.462;6.698;2023-02-28T05:54:56;-1.89;76.46
67862;DHT22;54665;51.462;6.698;2023-02-28T05:57:22;-1.86;76.45
67862;DHT22;54665;51.462;6.698;2023-02-28T05:59:48;-1.84;76.87
67862;DHT22;54665;51.462;6.698;2023-02-28T06:02:16;-1.89;76.74
67862;DHT22;54665;51.462;6.698;2023-02-28T06:04:42;-2.00;76.43
67862;DHT22;54665;51.462;6.698;2023-02-28T06:07:09;-2.14;76.47
67862;DHT22;54665;51.462;6.698;2023-02-28T06:09:35;-2.14;77.05
67862;DHT22;54665;51.462;6.698;2023-02-28T06:12:01;-2.15;76.81
67862;DHT22;54665;51.462;6.698;2023-02-28T06:14:29;-2.10;76.74
67862;DHT22;54665;51.462;6.698;2023-02-28T06:16:56;-2.02;76.76
67862;DHT22;54665;51.462;6.698;2023-02-28T06:19:22;-2.07;76.68
67862;DHT22;54665;51.462;6.698;2023-02-28T06:21:51;-1.94;76.16
67862;DHT22;54665;51.462;6.698;2023-02-28T06:24:21;-1.93;76.32
67862;DHT22;54665;51.462;6.698;2023-02-28T06:26:47;-1.93;76.21
67862;DHT22;54665;51.462;6.698;2023-02-28T06:29:13;-1.95;75.78
67862;DHT22;54665;51.462;6.698;2023-02-28T06:31:42;-2.00;75.82
67862;DHT22;54665;51.462;6.698;2023-02-28T06:34:09;-2.02;76.10
67862;DHT22;54665;51.462;6.698;2023-02-28T06:36:37;-2.01;76.40
67862;DHT22;54665;51.462;6.698;2023-02-28T06:39:03;-2.00;76.58
67862;DHT22;54665;51.462;6.698;2023-02-28T06:41:29;-1.90;76.55
67862;DHT22;54665;51.462;6.698;2023-02-28T06:43:54;-1.91;76.16
67862;DHT22;54665;51.462;6.698;2023-02-28T06:46:20;-1.86;75.85
67862;DHT22;54665;51.462;6.698;2023-02-28T06:48:45;-1.77;76.59
67862;DHT22;54665;51.462;6.698;2023-02-28T06:51:16;-1.69;76.37
67862;DHT22;54665;51.462;6.698;2023-02-28T06:53:42;-1.56;76.17
67862;DHT22;54665;51.462;6.698;2023-02-28T06:56:11;-1.55;75.73
67862;DHT22;54665;51.462;6.698;2023-02-28T06:58:37;-1.60;75.84
67862;DHT22;54665;51.462;6.698;2023-02-28T07:01:05;-1.55;75.88
67862;DHT22;54665;51.462;6.698;2023-02-28T07:03:31;-1.34;75.21
67862;DHT22;54665;51.462;6.698;2023-02-28T07:05:57;-1.28;74.74
67862;DHT22;54665;51.462;6.698;2023-02-28T07:08:26;-1.20;74.69
67862;DHT22;54665;51.462;6.698;2023-02-28T07:10:55;-1.11;74.22
67862;DHT22;54665;51.462;6.698;2023-02-28T07:13:21;-1.12;73.95
67862;DHT22;54665;51.462;6.698;2023-02-28T07:16:01;-0.88;73.75
67862;DHT22;54665;51.462;6.698;2023-02-28T07:18:27;-0.77;72.90
67862;DHT22;54665;51.462;6.698;2023-02-28T07:20:52;-0.50;72.02
67862;DHT22;54665;51.462;6.698;2023-02-28T07:23:18;-0.54;71.94
67862;DHT22;54665;51.462;6.698;2023-02-28T07:25:44;-0.38;71.32
67862;DHT22;54665;51.462;6.698;2023-02-28T07:28:11;-0.30;71.03
67862;DHT22;54665;51.462;6.698;2023-02-28T07:30:36;-0.22;71.04
67862;DHT22;54665;51.462;6.698;2023-02-28T07:33:01;-0.13;70.82
67862;DHT22;54665;51.462;6.698;2023-02-28T07:35:27;-0.12;70.55
67862;DHT22;54665;51.462;6.698;2023-02-28T07:37:52;-0.10;70.77
67862;DHT22;54665;51.462;6.698;2023-02-28T07:40:18;-0.23;71.47
67862;DHT22;54665;51.462;6.698;2023-02-28T07:42:44;-0.10;70.68
67862;DHT22;54665;51.462;6.698;2023-02-28T07:45:10;-0.06;70.53
67862;DHT22;54665;51.462;6.698;2023-02-28T07:47:39;0.02;70.32
67862;DHT22;54665;51.462;6.698;2023-02-28T07:50:07;0.16;69.96
67862;DHT22;54665;51.462;6.698;2023-02-28T07:52:32;0.30;69.86
67862;DHT22;54665;51.462;6.698;2023-02-28T07:54:58;0.38;69.76
67862;DHT22;54665;51.462;6.698;2023-02-28T07:57:23;0.56;68.81
67862;DHT22;54665;51.462;6.698;2023-02-28T07:59:49;0.59;68.89
67862;DHT22;54665;51.462;6.698;2023-02-28T08:02:15;0.72;69.14
67862;DHT22;54665;51.462;6.698;2023-02-28T08:04:41;0.94;68.29
67862;DHT22;54665;51.462;6.698;2023-02-28T08:07:06;2.44;65.45
67862;DHT22;54665;51.462;6.698;2023-02-28T08:09:33;4.25;61.00
67862;DHT22;54665;51.462;6.698;2023-02-28T08:11:59;5.15;56.91
67862;DHT22;54665;51.462;6.698;2023-02-28T08:14:25;5.14;55.34
67862;DHT22;54665;51.462;6.698;2023-02-28T08:16:50;5.10;55.46
67862;DHT22;54665;51.462;6.698;2023-02-28T08:19:16;5.15;55.29
67862;DHT22;54665;51.462;6.698;2023-02-28T08:21:41;5.30;53.86
67862;DHT22;54665;51.462;6.698;2023-02-28T08:24:07;6.10;53.69
67862;DHT22;54665;51.462;6.698;2023-02-28T08:26:33;6.47;51.82
67862;DHT22;54665;51.462;6.698;2023-02-28T08:28:58;5.96;53.38
67862;DHT22;54665;51.462;6.698;2023-02-28T08:31:23;6.58;52.73
67862;DHT22;54665;51.462;6.698;2023-02-28T08:33:49;7.30;48.81
67862;DHT22;54665;51.462;6.698;2023-02-28T08:36:17;7.39;48.11
67862;DHT22;54665;51.462;6.698;2023-02-28T08:38:42;7.77;46.88
67862;DHT22;54665;51.462;6.698;2023-02-28T08:41:10;7.56;47.01
67862;DHT22;54665;51.462;6.698;2023-02-28T08:43:36;7.98;44.58
67862;DHT22;54665;51.462;6.698;2023-02-28T08:46:02;7.75;44.91
67862;DHT22;54665;51.462;6.698;2023-02-28T08:48:30;6.51;46.12
67862;DHT22;54665;51.462;6.698;2023-02-28T08:50:57;5.97;47.96
67862;DHT22;54665;51.462;6.698;2023-02-28T08:53:22;5.99;48.95
67862;DHT22;54665;51.462;6.698;2023-02-28T08:56:02;5.21;50.35
67862;DHT22;54665;51.462;6.698;2023-02-28T08:58:28;4.90;51.17
67862;DHT22;54665;51.462;6.698;2023-02-28T09:00:53;4.96;49.87
67862;DHT22;54665;51.462;6.698;2023-02-28T09:03:19;5.25;49.76
67862;DHT22;54665;51.462;6.698;2023-02-28T09:05:53;5.25;50.24
67862;DHT22;54665;51.462;6.698;2023-02-28T09:08:19;5.32;48.17
67862;DHT22;54665;51.462;6.698;2023-02-28T09:10:44;5.06;50.32
67862;DHT22;54665;51.462;6.698;2023-02-28T09:13:10;5.63;49.16
67862;DHT22;54665;51.462;6.698;2023-02-28T09:15:37;6.55;46.81
67862;DHT22;54665;51.462;6.698;2023-02-28T09:18:03;7.59;43.57
67862;DHT22;54665;51.462;6.698;2023-02-28T09:20:28;8.22;43.64
67862;DHT22;54665;51.462;6.698;2023-02-28T09:22:53;8.56;41.81
67862;DHT22;54665;51.462;6.698;2023-02-28T09:25:19;8.06;39.68
67862;DHT22;54665;51.462;6.698;2023-02-28T09:27:44;8.36;40.53
67862;DHT22;54665;51.462;6.698;2023-02-28T09:30:11;8.08;39.37
67862;DHT22;54665;51.462;6.698;2023-02-28T09:32:36;8.18;38.82
67862;DHT22;54665;51.462;6.698;2023-02-28T09:35:02;8.11;39.83
67862;DHT22;54665;51.462;6.698;2023-02-28T09:37:27;7.85;40.09
67862;DHT22;54665;51.462;6.698;2023-02-28T09:39:54;7.87;39.76
67862;DHT22;54665;51.462;6.698;2023-02-28T09:42:33;8.01;39.73
67862;DHT22;54665;51.462;6.698;2023-02-28T09:45:02;7.87;39.75
67862;DHT22;54665;51.462;6.698;2023-02-28T09:50:11;7.84;39.28
67862;DHT22;54665;51.462;6.698;2023-02-28T09:52:40;7.13;40.32
67862;DHT22;54665;51.462;6.698;2023-02-28T09:55:37;7.18;40.27
67862;DHT22;54665;51.462;6.698;2023-02-28T09:58:04;7.36;40.54
67862;DHT22;54665;51.462;6.698;2023-02-28T10:00:37;7.57;39.67
67862;DHT22;54665;51.462;6.698;2023-02-28T10:03:25;7.29;40.02
67862;DHT22;54665;51.462;6.698;2023-02-28T10:06:01;7.49;39.93
67862;DHT22;54665;51.462;6.698;2023-02-28T10:10:57;7.20;41.78
67862;DHT22;54665;51.462;6.698;2023-02-28T10:13:32;7.43;41.67
67862;DHT22;54665;51.462;6.698;2023-02-28T10:16:02;7.42;40.34
67862;DHT22;54665;51.462;6.698;2023-02-28T10:18:46;6.92;41.18
67862;DHT22;54665;51.462;6.698;2023-02-28T10:21:30;7.40;40.22
67862;DHT22;54665;51.462;6.698;2023-02-28T10:24:11;7.91;39.60
67862;DHT22;54665;51.462;6.698;2023-02-28T10:26:41;7.80;39.40
67862;DHT22;54665;51.462;6.698;2023-02-28T10:29:09;7.73;37.42
67862;DHT22;54665;51.462;6.698;2023-02-28T10:31:35;7.43;40.11
67862;DHT22;54665;51.462;6.698;2023-02-28T10:34:00;7.46;40.73
67862;DHT22;54665;51.462;6.698;2023-02-28T10:36:26;7.29;39.24
67862;DHT22;54665;51.462;6.698;2023-02-28T10:38:53;7.42;39.47
67862;DHT22;54665;51.462;6.698;2023-02-28T10:41:31;7.54;39.63
67862;DHT22;54665;51.462;6.698;2023-02-28T10:44:21;7.53;39.99
67862;DHT22;54665;51.462;6.698;2023-02-28T10:46:48;7.47;41.11
67862;DHT22;54665;51.462;6.698;2023-02-28T10:49:26;7.67;41.59
67862;DHT22;54665;51.462;6.698;2023-02-28T10:51:54;7.85;41.61
67862;DHT22;54665;51.462;6.698;2023-02-28T10:54:29;6.75;40.89
67862;DHT22;54665;51.462;6.698;2023-02-28T10:57:18;6.72;41.17
67862;DHT22;54665;51.462;6.698;2023-02-28T10:59:45;6.60;41.96
67862;DHT22;54665;51.462;6.698;2023-02-28T11:02:31;7.10;41.60
67862;DHT22;54665;51.462;6.698;2023-02-28T11:04:56;7.30;42.72
67862;DHT22;54665;51.462;6.698;2023-02-28T11:07:23;6.58;40.84
67862;DHT22;54665;51.462;6.698;2023-02-28T11:09:52;6.96;43.37
67862;DHT22;54665;51.462;6.698;2023-02-28T11:12:26;7.54;41.94
67862;DHT22;54665;51.462;6.698;2023-02-28T11:15:00;6.95;40.97
67862;DHT22;54665;51.462;6.698;2023-02-28T11:17:29;6.26;43.28
67862;DHT22;54665;51.462;6.698;2023-02-28T11:19:58;6.16;43.42
67862;DHT22;54665;51.462;6.698;2023-02-28T11:22:30;6.57;41.94
67862;DHT22;54665;51.462;6.698;2023-02-28T11:24:59;7.30;41.79
67862;DHT22;54665;51.462;6.698;2023-02-28T11:27:42;7.19;42.32
67862;DHT22;54665;51.462;6.698;2023-02-28T11:32:59;7.64;39.92
67862;DHT22;54665;51.462;6.698;2023-02-28T11:35:34;7.91;38.94
67862;DHT22;54665;51.462;6.698;2023-02-28T11:38:02;8.01;38.57
67862;DHT22;54665;51.462;6.698;2023-02-28T11:40:43;8.06;40.20
67862;DHT22;54665;51.462;6.698;2023-02-28T11:48:41;7.66;40.61
67862;DHT22;54665;51.462;6.698;2023-02-28T12:07:08;6.44;44.40
67862;DHT22;54665;51.462;6.698;2023-02-28T12:18:07;7.73;41.91
67862;DHT22;54665;51.462;6.698;2023-02-28T12:20:43;8.04;39.86
67862;DHT22;54665;51.462;6.698;2023-02-28T12:28:42;8.18;38.86
67862;DHT22;54665;51.462;6.698;2023-02-28T12:31:17;8.22;38.74
67862;DHT22;54665;51.462;6.698;2023-02-28T12:33:48;8.33;40.83
67862;DHT22;54665;51.462;6.698;2023-02-28T12:36:18;8.45;39.93
67862;DHT22;54665;51.462;6.698;2023-02-28T12:38:56;8.36;39.68
67862;DHT22;54665;51.462;6.698;2023-02-28T12:41:42;8.26;40.58
67862;DHT22;54665;51.462;6.698;2023-02-28T12:44:16;8.11;39.95
67862;DHT22;54665;51.462;6.698;2023-02-28T12:46:45;8.05;38.51
67862;DHT22;54665;51.462;6.698;2023-02-28T12:49:33;8.15;40.71
67862;DHT22;54665;51.462;6.698;2023-02-28T12:52:02;7.84;38.87
67862;DHT22;54665;51.462;6.698;2023-02-28T12:54:46;8.11;39.16
67862;DHT22;54665;51.462;6.698;2023-02-28T13:00:14;8.49;40.88
67862;DHT22;54665;51.462;6.698;2023-02-28T13:08:24;8.28;39.62
67862;DHT22;54665;51.462;6.698;2023-02-28T13:10:52;8.66;39.88
67862;DHT22;54665;51.462;6.698;2023-02-28T13:13:27;8.83;38.44
67862;DHT22;54665;51.462;6.698;2023-02-28T13:16:04;8.62;39.06
67862;DHT22;54665;51.462;6.698;2023-02-28T13:18:38;8.80;39.73
67862;DHT22;54665;51.462;6.698;2023-02-28T13:26:21;8.46;41.64
67862;DHT22;54665;51.462;6.698;2023-02-28T13:28:58;8.53;41.08
67862;DHT22;54665;51.462;6.698;2023-02-28T13:31:24;8.24;40.85
67862;DHT22;54665;51.462;6.698;2023-02-28T13:38:45;8.12;41.46
67862;DHT22;54665;51.462;6.698;2023-02-28T13:46:32;8.26;41.46
67862;DHT22;54665;51.462;6.698;2023-02-28T13:58:04;8.49;41.25
67862;DHT22;54665;51.462;6.698;2023-02-28T14:05:42;8.05;43.60
67862;DHT22;54665;51.462;6.698;2023-02-28T14:08:14;7.99;42.37
67862;DHT22;54665;51.462;6.698;2023-02-28T14:10:47;8.01;43.52
67862;DHT22;54665;51.462;6.698;2023-02-28T14:13:36;7.64;43.28
67862;DHT22;54665;51.462;6.698;2023-02-28T14:16:06;7.81;43.53
67862;DHT22;54665;51.462;6.698;2023-02-28T14:18:37;7.69;43.92
67862;DHT22;54665;51.462;6.698;2023-02-28T14:21:25;8.05;43.77
67862;DHT22;54665;51.462;6.698;2023-02-28T14:24:19;7.84;44.73
67862;DHT22;54665;51.462;6.698;2023-02-28T14:33:20;7.77;44.32
67862;DHT22;54665;51.462;6.698;2023-02-28T14:38:32;7.67;44.63
67862;DHT22;54665;51.462;6.698;2023-02-28T14:41:00;7.30;43.56
67862;DHT22;54665;51.462;6.698;2023-02-28T14:43:28;7.46;45.53
67862;DHT22;54665;51.462;6.698;2023-02-28T14:46:01;7.05;46.01
67862;DHT22;54665;51.462;6.698;2023-02-28T14:48:27;6.71;46.95
67862;DHT22;54665;51.462;6.698;2023-02-28T14:50:58;6.95;46.18
67862;DHT22;54665;51.462;6.698;2023-02-28T14:53:27;6.79;46.74
67862;DHT22;54665;51.462;6.698;2023-02-28T14:55:54;7.02;46.59
67862;DHT22;54665;51.462;6.698;2023-02-28T14:58:26;7.02;47.86
67862;DHT22;54665;51.462;6.698;2023-02-28T15:00:55;6.93;46.82
67862;DHT22;54665;51.462;6.698;2023-02-28T15:05:55;6.58;47.99
67862;DHT22;54665;51.462;6.698;2023-02-28T15:08:20;6.63;47.29
67862;DHT22;54665;51.462;6.698;2023-02-28T15:11:07;6.48;46.21
67862;DHT22;54665;51.462;6.698;2023-02-28T15:13:59;6.54;47.03
67862;DHT22;54665;51.462;6.698;2023-02-28T15:16:32;6.50;46.96
67862;DHT22;54665;51.462;6.698;2023-02-28T15:19:01;6.41;46.99
67862;DHT22;54665;51.462;6.698;2023-02-28T15:21:30;6.41;47.84
67862;DHT22;54665;51.462;6.698;2023-02-28T15:26:33;6.75;49.02
67862;DHT22;54665;51.462;6.698;2023-02-28T15:29:10;6.45;49.08
67862;DHT22;54665;51.462;6.698;2023-02-28T15:31:44;6.27;49.26
67862;DHT22;54665;51.462;6.698;2023-02-28T15:34:19;6.13;49.20
67862;DHT22;54665;51.462;6.698;2023-02-28T15:36:45;6.44;49.42
67862;DHT22;54665;51.462;6.698;2023-02-28T15:39:25;6.31;49.96
67862;DHT22;54665;51.462;6.698;2023-02-28T15:41:52;6.23;48.69
67862;DHT22;54665;51.462;6.698;2023-02-28T15:44:34;6.13;48.98
67862;DHT22;54665;51.462;6.698;2023-02-28T15:47:16;6.16;49.92
67862;DHT22;54665;51.462;6.698;2023-02-28T15:49:49;6.20;49.86
67862;DHT22;54665;51.462;6.698;2023-02-28T15:52:19;6.38;49.55
67862;DHT22;54665;51.462;6.698;2023-02-28T15:54:46;6.24;50.10
67862;DHT22;54665;51.462;6.698;2023-02-28T15:57:17;6.13;50.22
67862;DHT22;54665;51.462;6.698;2023-02-28T15:59:50;5.83;49.73
67862;DHT22;54665;51.462;6.698;2023-02-28T16:02:19;5.82;49.44
67862;DHT22;54665;51.462;6.698;2023-02-28T16:04:59;5.79;49.87
67862;DHT22;54665;51.462;6.698;2023-02-28T16:07:26;5.72;50.73
67862;DHT22;54665;51.462;6.698;2023-02-28T16:09:52;5.56;50.93
67862;DHT22;54665;51.462;6.698;2023-02-28T16:12:19;5.56;50.70
67862;DHT22;54665;51.462;6.698;2023-02-28T16:14:46;5.37;50.17
67862;DHT22;54665;51.462;6.698;2023-02-28T16:17:26;5.49;50.19
67862;DHT22;54665;51.462;6.698;2023-02-28T16:19:52;5.47;51.01
67862;DHT22;54665;51.462;6.698;2023-02-28T16:22:17;5.44;51.35
67862;DHT22;54665;51.462;6.698;2023-02-28T16:24:43;5.37;51.73
67862;DHT22;54665;51.462;6.698;2023-02-28T16:27:45;5.21;53.08
67862;DHT22;54665;51.462;6.698;2023-02-28T16:30:23;5.13;52.89
67862;DHT22;54665;51.462;6.698;2023-02-28T16:32:50;5.27;52.10
67862;DHT22;54665;51.462;6.698;2023-02-28T16:35:16;5.24;53.33
67862;DHT22;54665;51.462;6.698;2023-02-28T16:37:43;4.97;54.18
67862;DHT22;54665;51.462;6.698;2023-02-28T16:42:41;5.03;53.14
67862;DHT22;54665;51.462;6.698;2023-02-28T16:45:15;5.08;52.94
67862;DHT22;54665;51.462;6.698;2023-02-28T16:47:41;4.93;53.52
67862;DHT22;54665;51.462;6.698;2023-02-28T16:52:45;4.90;53.61
67862;DHT22;54665;51.462;6.698;2023-02-28T16:55:11;4.90;53.95
67862;DHT22;54665;51.462;6.698;2023-02-28T16:57:38;4.73;54.67
67862;DHT22;54665;51.462;6.698;2023-02-28T17:00:06;4.53;54.56
67862;DHT22;54665;51.462;6.698;2023-02-28T17:02:33;4.70;54.15
67862;DHT22;54665;51.462;6.698;2023-02-28T17:04:59;4.76;54.22
67862;DHT22;54665;51.462;6.698;2023-02-28T17:07:25;4.55;54.89
67862;DHT22;54665;51.462;6.698;2023-02-28T17:09:50;4.65;55.28
67862;DHT22;54665;51.462;6.698;2023-02-28T17:12:15;4.52;54.95
67862;DHT22;54665;51.462;6.698;2023-02-28T17:14:41;4.53;55.74
67862;DHT22;54665;51.462;6.698;2023-02-28T17:17:07;4.50;55.42
67862;DHT22;54665;51.462;6.698;2023-02-28T17:19:33;4.42;55.70
67862;DHT22;54665;51.462;6.698;2023-02-28T17:22:01;4.14;56.41
67862;DHT22;54665;51.462;6.698;2023-02-28T17:24:27;3.84;57.85
67862;DHT22;54665;51.462;6.698;2023-02-28T17:26:53;3.93;57.43
67862;DHT22;54665;51.462;6.698;2023-02-28T17:29:20;3.85;57.86
67862;DHT22;54665;51.462;6.698;2023-02-28T17:31:45;3.91;57.68
67862;DHT22;54665;51.462;6.698;2023-02-28T17:34:11;3.85;58.11
67862;DHT22;54665;51.462;6.698;2023-02-28T17:36:44;3.71;58.47
67862;DHT22;54665;51.462;6.698;2023-02-28T17:39:12;3.59;59.06
67862;DHT22;54665;51.462;6.698;2023-02-28T17:41:42;3.52;58.98
67862;DHT22;54665;51.462;6.698;2023-02-28T17:44:08;3.37;59.38
67862;DHT22;54665;51.462;6.698;2023-02-28T17:46:34;3.36;59.96
67862;DHT22;54665;51.462;6.698;2023-02-28T17:48:59;3.37;59.54
67862;DHT22;54665;51.462;6.698;2023-02-28T17:51:25;3.44;60.00
67862;DHT22;54665;51.462;6.698;2023-02-28T17:53:50;3.47;59.94
67862;DHT22;54665;51.462;6.698;2023-02-28T17:56:19;3.42;60.06
67862;DHT22;54665;51.462;6.698;2023-02-28T17:58:45;3.33;60.01
67862;DHT22;54665;51.462;6.698;2023-02-28T18:01:11;3.26;60.19
67862;DHT22;54665;51.462;6.698;2023-02-28T18:03:37;3.19;60.63
67862;DHT22;54665;51.462;6.698;2023-02-28T18:06:03;3.22;60.63
67862;DHT22;54665;51.462;6.698;2023-02-28T18:08:29;3.11;61.41